sensor_id;sensor_type;location;lat;lon;timestamp;temperature;humidity
28244;DHT22;15510;52.512;13.300;2023-02-07T00:00:41;-0.40;99.90
28244;DHT22;15510;52.512;13.300;2023-02-07T00:03:07;-0.50;99.90
28244;DHT22;15510;52.512;13.300;2023-02-07T00:05:32;-0.50;99.90
28244;DHT22;15510;52.512;13.300;2023-02-07T00:08:04;-0.50;99.90
28244;DHT22;15510;52.512;13.300;2023-02-07T00:10:31;-0.40;99.90
28244;DHT22;15510;52.512;13.300;2023-02-07T00:12:57;-0.40;99.90
28244;DHT22;15510;52.512;13.300;2023-02-07T00:15:23;-0.50;99.90
28244;DHT22;15510;52.512;13.300;2023-02-07T00:17:49;-0.50;99.90
28244;DHT22;15510;52.512;13.300;2023-02-07T00:20:15;-0.40;99.90
28244;DHT22;15510;52.512;13.300;2023-02-07T00:22:45;-0.40;99.90
28244;DHT22;15510;52.512;13.300;2023-02-07T00:25:11;-0.50;99.90
28244;DHT22;15510;52.512;13.300;2023-02-07T00:27:37;-0.50;99.90
28244;DHT22;15510;52.512;13.300;2023-02-07T00:30:03;-0.60;99.90
28244;DHT22;15510;52.512;13.300;2023-02-07T00:32:30;-0.70;99.90
28244;DHT22;15510;52.512;13.300;2023-02-07T00:34:56;-0.80;99.90
28244;DHT22;15510;52.512;13.300;2023-02-07T00:37:22;-0.80;99.90
28244;DHT22;15510;52.512;13.300;2023-02-07T00:39:48;-0.80;99.90
28244;DHT22;15510;52.512;13.300;2023-02-07T00:42:13;-0.80;99.90
28244;DHT22;15510;52.512;13.300;2023-02-07T00:44:39;-0.70;99.90
28244;DHT22;15510;52.512;13.300;2023-02-07T00:47:05;-0.70;99.90
28244;DHT22;15510;52.512;13.300;2023-02-07T00:49:30;-0.60;99.90
28244;DHT22;15510;52.512;13.300;2023-02-07T00:51:56;-0.60;99.90
28244;DHT22;15510;52.512;13.300;2023-02-07T00:54:22;-0.70;99.90
28244;DHT22;15510;52.512;13.300;2023-02-07T00:56:50;-0.80;99.90
28244;DHT22;15510;52.512;13.300;2023-02-07T00:59:15;-0.80;99.90
28244;DHT22;15510;52.512;13.300;2023-02-07T01:01:41;-0.80;99.90
28244;DHT22;15510;52.512;13.300;2023-02-07T01:04:07;-0.80;99.90
28244;DHT22;15510;52.512;13.300;2023-02-07T01:06:33;-0.80;99.90
28244;DHT22;15510;52.512;13.300;2023-02-07T01:09:03;-0.90;99.90
28244;DHT22;15510;52.512;13.300;2023-02-07T01:11:30;-1.00;99.90
28244;DHT22;15510;52.512;13.300;2023-02-07T01:14:00;-1.00;99.90
28244;DHT22;15510;52.512;13.300;2023-02-07T01:16:33;-1.10;99.90
28244;DHT22;15510;52.512;13.300;2023-02-07T01:19:03;-1.20;99.90
28244;DHT22;15510;52.512;13.300;2023-02-07T01:21:29;-1.30;99.90
28244;DHT22;15510;52.512;13.300;2023-02-07T01:23:55;-1.40;99.90
28244;DHT22;15510;52.512;13.300;2023-02-07T01:26:23;-1.40;99.90
28244;DHT22;15510;52.512;13.300;2023-02-07T01:28:50;-1.40;99.90
28244;DHT22;15510;52.512;13.300;2023-02-07T01:31:17;-1.50;99.90
28244;DHT22;15510;52.512;13.300;2023-02-07T01:33:43;-1.50;99.90
28244;DHT22;15510;52.512;13.300;2023-02-07T01:36:13;-1.60;99.90
28244;DHT22;15510;52.512;13.300;2023-02-07T01:38:40;-1.60;99.90
28244;DHT22;15510;52.512;13.300;2023-02-07T01:41:06;-1.60;99.90
28244;DHT22;15510;52.512;13.300;2023-02-07T01:43:33;-1.60;99.90
28244;DHT22;15510;52.512;13.300;2023-02-07T01:45:58;-1.60;99.90
28244;DHT22;15510;52.512;13.300;2023-02-07T01:48:29;-1.60;99.90
28244;DHT22;15510;52.512;13.300;2023-02-07T01:50:58;-1.60;99.90
28244;DHT22;15510;52.512;13.300;2023-02-07T01:53:27;-1.50;99.90
28244;DHT22;15510;52.512;13.300;2023-02-07T01:55:55;-1.50;99.90
28244;DHT22;15510;52.512;13.300;2023-02-07T01:58:22;-1.50;99.90
28244;DHT22;15510;52.512;13.300;2023-02-07T02:00:48;-1.50;99.90
28244;DHT22;15510;52.512;13.300;2023-02-07T02:03:14;-1.50;99.90
28244;DHT22;15510;52.512;13.300;2023-02-07T02:05:41;-1.50;99.90
28244;DHT22;15510;52.512;13.300;2023-02-07T02:08:07;-1.50;99.90
28244;DHT22;15510;52.512;13.300;2023-02-07T02:18:47;-1.50;99.90
28244;DHT22;15510;52.512;13.300;2023-02-07T02:24:53;-1.60;99.90
28244;DHT22;15510;52.512;13.300;2023-02-07T02:27:21;-1.60;99.90
28244;DHT22;15510;52.512;13.300;2023-02-07T02:30:17;-1.50;99.90
28244;DHT22;15510;52.512;13.300;2023-02-07T02:33:30;-1.60;99.90
28244;DHT22;15510;52.512;13.300;2023-02-07T02:36:20;-1.60;99.90
28244;DHT22;15510;52.512;13.300;2023-02-07T02:39:09;-1.50;99.90
28244;DHT22;15510;52.512;13.300;2023-02-07T02:41:41;-1.60;99.90
28244;DHT22;15510;52.512;13.300;2023-02-07T02:44:25;-1.60;99.90
28244;DHT22;15510;52.512;13.300;2023-02-07T02:46:53;-1.60;99.90
28244;DHT22;15510;52.512;13.300;2023-02-07T02:49:21;-1.50;99.90
28244;DHT22;15510;52.512;13.300;2023-02-07T02:51:50;-1.50;99.90
28244;DHT22;15510;52.512;13.300;2023-02-07T02:54:35;-1.40;99.90
28244;DHT22;15510;52.512;13.300;2023-02-07T03:08:45;-1.50;99.90
28244;DHT22;15510;52.512;13.300;2023-02-07T03:11:15;-1.70;99.90
28244;DHT22;15510;52.512;13.300;2023-02-07T03:14:18;-1.70;99.90
28244;DHT22;15510;52.512;13.300;2023-02-07T03:19:28;-1.80;99.90
28244;DHT22;15510;52.512;13.300;2023-02-07T03:21:58;-1.90;99.90
28244;DHT22;15510;52.512;13.300;2023-02-07T03:24:32;-1.90;99.90
28244;DHT22;15510;52.512;13.300;2023-02-07T03:27:05;-2.00;99.90
28244;DHT22;15510;52.512;13.300;2023-02-07T03:29:34;-2.10;99.90
28244;DHT22;15510;52.512;13.300;2023-02-07T03:32:03;-2.10;99.90
28244;DHT22;15510;52.512;13.300;2023-02-07T03:37:30;-2.00;99.90
28244;DHT22;15510;52.512;13.300;2023-02-07T03:39:58;-2.10;99.90
28244;DHT22;15510;52.512;13.300;2023-02-07T03:44:56;-2.10;99.90
28244;DHT22;15510;52.512;13.300;2023-02-07T03:47:24;-2.00;99.90
28244;DHT22;15510;52.512;13.300;2023-02-07T03:49:50;-2.10;99.90
28244;DHT22;15510;52.512;13.300;2023-02-07T03:52:16;-2.00;99.90
28244;DHT22;15510;52.512;13.300;2023-02-07T03:54:42;-2.00;99.90
28244;DHT22;15510;52.512;13.300;2023-02-07T03:57:08;-2.20;99.90
28244;DHT22;15510;52.512;13.300;2023-02-07T03:59:34;-2.20;99.90
28244;DHT22;15510;52.512;13.300;2023-02-07T04:01:59;-2.30;99.90
28244;DHT22;15510;52.512;13.300;2023-02-07T04:04:27;-2.20;99.90
28244;DHT22;15510;52.512;13.300;2023-02-07T04:06:53;-2.10;99.90
28244;DHT22;15510;52.512;13.300;2023-02-07T04:09:19;-2.00;99.90
28244;DHT22;15510;52.512;13.300;2023-02-07T04:11:48;-1.90;99.90
28244;DHT22;15510;52.512;13.300;2023-02-07T04:14:14;-1.80;99.90
28244;DHT22;15510;52.512;13.300;2023-02-07T04:16:40;-1.80;99.90
28244;DHT22;15510;52.512;13.300;2023-02-07T04:19:06;-1.70;99.90
28244;DHT22;15510;52.512;13.300;2023-02-07T04:21:32;-1.70;99.90
28244;DHT22;15510;52.512;13.300;2023-02-07T04:23:57;-1.70;99.90
28244;DHT22;15510;52.512;13.300;2023-02-07T04:26:23;-1.70;99.90
28244;DHT22;15510;52.512;13.300;2023-02-07T04:28:49;-1.70;99.90
28244;DHT22;15510;52.512;13.300;2023-02-07T04:31:14;-1.60;99.90
28244;DHT22;15510;52.512;13.300;2023-02-07T04:33:40;-1.50;99.90
28244;DHT22;15510;52.512;13.300;2023-02-07T04:36:06;-1.50;99.90
28244;DHT22;15510;52.512;13.300;2023-02-07T04:38:32;-1.50;99.90
28244;DHT22;15510;52.512;13.300;2023-02-07T04:41:00;-1.60;99.90
28244;DHT22;15510;52.512;13.300;2023-02-07T04:43:28;-1.60;99.90
28244;DHT22;15510;52.512;13.300;2023-02-07T04:45:54;-1.70;99.90
28244;DHT22;15510;52.512;13.300;2023-02-07T04:48:20;-1.60;99.90
28244;DHT22;15510;52.512;13.300;2023-02-07T04:50:45;-1.60;99.90
28244;DHT22;15510;52.512;13.300;2023-02-07T04:53:11;-1.70;99.90
28244;DHT22;15510;52.512;13.300;2023-02-07T04:55:37;-1.70;99.90
28244;DHT22;15510;52.512;13.300;2023-02-07T04:58:04;-1.70;99.90
28244;DHT22;15510;52.512;13.300;2023-02-07T05:00:30;-1.60;99.90
28244;DHT22;15510;52.512;13.300;2023-02-07T05:02:56;-1.50;99.90
28244;DHT22;15510;52.512;13.300;2023-02-07T05:05:21;-1.50;99.90
28244;DHT22;15510;52.512;13.300;2023-02-07T05:07:47;-1.60;99.90
28244;DHT22;15510;52.512;13.300;2023-02-07T05:10:13;-1.60;99.90
28244;DHT22;15510;52.512;13.300;2023-02-07T05:12:39;-1.60;99.90
28244;DHT22;15510;52.512;13.300;2023-02-07T05:15:05;-1.60;99.90
28244;DHT22;15510;52.512;13.300;2023-02-07T05:17:30;-1.60;99.90
28244;DHT22;15510;52.512;13.300;2023-02-07T05:20:00;-1.60;99.90
28244;DHT22;15510;52.512;13.300;2023-02-07T05:22:26;-1.60;99.90
28244;DHT22;15510;52.512;13.300;2023-02-07T05:24:52;-1.50;99.90
28244;DHT22;15510;52.512;13.300;2023-02-07T05:27:17;-1.60;99.90
28244;DHT22;15510;52.512;13.300;2023-02-07T05:29:43;-1.60;99.90
28244;DHT22;15510;52.512;13.300;2023-02-07T05:32:13;-1.70;99.90
28244;DHT22;15510;52.512;13.300;2023-02-07T05:34:57;-1.70;99.90
28244;DHT22;15510;52.512;13.300;2023-02-07T05:37:23;-1.70;99.90
28244;DHT22;15510;52.512;13.300;2023-02-07T05:39:49;-1.70;99.90
28244;DHT22;15510;52.512;13.300;2023-02-07T05:42:15;-1.70;99.90
28244;DHT22;15510;52.512;13.300;2023-02-07T05:44:41;-1.70;99.90
28244;DHT22;15510;52.512;13.300;2023-02-07T05:47:06;-1.70;99.90
28244;DHT22;15510;52.512;13.300;2023-02-07T05:49:32;-1.60;99.90
28244;DHT22;15510;52.512;13.300;2023-02-07T05:51:58;-1.70;99.90
28244;DHT22;15510;52.512;13.300;2023-02-07T05:54:24;-1.70;99.90
28244;DHT22;15510;52.512;13.300;2023-02-07T05:56:50;-1.80;99.90
28244;DHT22;15510;52.512;13.300;2023-02-07T05:59:16;-1.80;99.90
28244;DHT22;15510;52.512;13.300;2023-02-07T06:01:41;-1.80;99.90
28244;DHT22;15510;52.512;13.300;2023-02-07T06:04:07;-1.80;99.90
28244;DHT22;15510;52.512;13.300;2023-02-07T06:06:33;-1.80;99.90
28244;DHT22;15510;52.512;13.300;2023-02-07T06:08:58;-1.90;99.90
28244;DHT22;15510;52.512;13.300;2023-02-07T06:11:24;-2.00;99.90
28244;DHT22;15510;52.512;13.300;2023-02-07T06:13:50;-2.00;99.90
28244;DHT22;15510;52.512;13.300;2023-02-07T06:16:16;-2.00;99.90
28244;DHT22;15510;52.512;13.300;2023-02-07T06:18:41;-2.00;99.90
28244;DHT22;15510;52.512;13.300;2023-02-07T06:21:07;-2.00;99.90
28244;DHT22;15510;52.512;13.300;2023-02-07T06:23:35;-2.00;99.90
28244;DHT22;15510;52.512;13.300;2023-02-07T06:26:00;-2.00;99.90
28244;DHT22;15510;52.512;13.300;2023-02-07T06:28:26;-2.20;99.90
28244;DHT22;15510;52.512;13.300;2023-02-07T06:30:52;-2.20;99.90
28244;DHT22;15510;52.512;13.300;2023-02-07T06:33:18;-2.20;99.90
28244;DHT22;15510;52.512;13.300;2023-02-07T06:35:44;-2.20;99.90
28244;DHT22;15510;52.512;13.300;2023-02-07T06:38:14;-2.20;99.90
28244;DHT22;15510;52.512;13.300;2023-02-07T06:40:40;-2.30;99.90
28244;DHT22;15510;52.512;13.300;2023-02-07T06:43:06;-2.20;99.90
28244;DHT22;15510;52.512;13.300;2023-02-07T06:45:32;-2.40;99.90
28244;DHT22;15510;52.512;13.300;2023-02-07T06:47:58;-2.30;99.90
28244;DHT22;15510;52.512;13.300;2023-02-07T06:50:24;-2.30;99.90
28244;DHT22;15510;52.512;13.300;2023-02-07T06:52:49;-2.30;99.90
28244;DHT22;15510;52.512;13.300;2023-02-07T06:55:15;-2.20;99.90
28244;DHT22;15510;52.512;13.300;2023-02-07T06:57:41;-2.20;99.90
28244;DHT22;15510;52.512;13.300;2023-02-07T07:00:07;-2.20;99.90
28244;DHT22;15510;52.512;13.300;2023-02-07T07:02:33;-2.20;99.90
28244;DHT22;15510;52.512;13.300;2023-02-07T07:04:59;-2.30;99.90
28244;DHT22;15510;52.512;13.300;2023-02-07T07:07:25;-2.30;99.90
28244;DHT22;15510;52.512;13.300;2023-02-07T07:09:51;-2.30;99.90
28244;DHT22;15510;52.512;13.300;2023-02-07T07:12:16;-2.30;99.90
28244;DHT22;15510;52.512;13.300;2023-02-07T07:14:42;-2.30;99.90
28244;DHT22;15510;52.512;13.300;2023-02-07T07:17:08;-2.20;99.90
28244;DHT22;15510;52.512;13.300;2023-02-07T07:19:33;-2.20;99.90
28244;DHT22;15510;52.512;13.300;2023-02-07T07:21:59;-2.20;99.90
28244;DHT22;15510;52.512;13.300;2023-02-07T07:24:25;-2.10;99.90
28244;DHT22;15510;52.512;13.300;2023-02-07T07:26:51;-2.00;99.90
28244;DHT22;15510;52.512;13.300;2023-02-07T07:29:17;-2.00;99.90
28244;DHT22;15510;52.512;13.300;2023-02-07T07:31:44;-2.00;99.90
28244;DHT22;15510;52.512;13.300;2023-02-07T07:34:10;-2.10;99.90
28244;DHT22;15510;52.512;13.300;2023-02-07T07:36:36;-2.10;99.90
28244;DHT22;15510;52.512;13.300;2023-02-07T07:39:02;-2.20;99.90
28244;DHT22;15510;52.512;13.300;2023-02-07T07:41:28;-2.20;99.90
28244;DHT22;15510;52.512;13.300;2023-02-07T07:43:54;-2.10;99.90
28244;DHT22;15510;52.512;13.300;2023-02-07T07:46:20;-2.20;99.90
28244;DHT22;15510;52.512;13.300;2023-02-07T07:48:46;-2.10;99.90
28244;DHT22;15510;52.512;13.300;2023-02-07T07:51:11;-2.10;99.90
28244;DHT22;15510;52.512;13.300;2023-02-07T07:53:37;-2.10;99.90
28244;DHT22;15510;52.512;13.300;2023-02-07T07:56:03;-2.10;99.90
28244;DHT22;15510;52.512;13.300;2023-02-07T07:58:29;-2.10;99.90
28244;DHT22;15510;52.512;13.300;2023-02-07T08:00:55;-2.00;99.90
28244;DHT22;15510;52.512;13.300;2023-02-07T08:03:22;-1.90;99.90
28244;DHT22;15510;52.512;13.300;2023-02-07T08:05:49;-2.00;99.90
28244;DHT22;15510;52.512;13.300;2023-02-07T08:08:16;-2.00;99.90
28244;DHT22;15510;52.512;13.300;2023-02-07T08:10:44;-2.00;99.90
28244;DHT22;15510;52.512;13.300;2023-02-07T08:13:10;-1.90;99.90
28244;DHT22;15510;52.512;13.300;2023-02-07T08:15:37;-2.00;99.90
28244;DHT22;15510;52.512;13.300;2023-02-07T08:18:04;-2.00;99.90
28244;DHT22;15510;52.512;13.300;2023-02-07T08:20:30;-1.90;99.90
28244;DHT22;15510;52.512;13.300;2023-02-07T08:22:56;-1.90;99.90
28244;DHT22;15510;52.512;13.300;2023-02-07T08:25:23;-1.80;99.90
28244;DHT22;15510;52.512;13.300;2023-02-07T08:27:48;-1.70;99.90
28244;DHT22;15510;52.512;13.300;2023-02-07T08:30:15;-1.60;99.90
28244;DHT22;15510;52.512;13.300;2023-02-07T08:32:43;-1.50;99.90
28244;DHT22;15510;52.512;13.300;2023-02-07T08:35:09;-1.40;99.90
28244;DHT22;15510;52.512;13.300;2023-02-07T08:37:36;-1.30;99.90
28244;DHT22;15510;52.512;13.300;2023-02-07T08:40:03;-1.20;99.90
28244;DHT22;15510;52.512;13.300;2023-02-07T08:42:29;-1.00;99.90
28244;DHT22;15510;52.512;13.300;2023-02-07T08:44:55;-0.90;99.90
28244;DHT22;15510;52.512;13.300;2023-02-07T08:47:21;-0.80;99.90
28244;DHT22;15510;52.512;13.300;2023-02-07T08:49:47;-0.90;99.90
28244;DHT22;15510;52.512;13.300;2023-02-07T08:52:13;-0.70;99.90
28244;DHT22;15510;52.512;13.300;2023-02-07T08:54:38;-0.70;99.90
28244;DHT22;15510;52.512;13.300;2023-02-07T08:57:04;-0.70;99.90
28244;DHT22;15510;52.512;13.300;2023-02-07T08:59:30;-0.60;99.90
28244;DHT22;15510;52.512;13.300;2023-02-07T09:01:56;-0.60;99.90
28244;DHT22;15510;52.512;13.300;2023-02-07T09:04:22;-0.50;99.90
28244;DHT22;15510;52.512;13.300;2023-02-07T09:06:48;-0.40;99.90
28244;DHT22;15510;52.512;13.300;2023-02-07T09:09:14;-0.30;99.90
28244;DHT22;15510;52.512;13.300;2023-02-07T09:11:39;-0.30;99.90
28244;DHT22;15510;52.512;13.300;2023-02-07T09:14:05;-0.20;99.90
28244;DHT22;15510;52.512;13.300;2023-02-07T09:16:31;-0.10;99.90
28244;DHT22;15510;52.512;13.300;2023-02-07T09:18:56;-0.10;99.90
28244;DHT22;15510;52.512;13.300;2023-02-07T09:21:22;0.00;99.90
28244;DHT22;15510;52.512;13.300;2023-02-07T09:23:48;0.10;99.90
28244;DHT22;15510;52.512;13.300;2023-02-07T09:26:17;0.20;99.90
28244;DHT22;15510;52.512;13.300;2023-02-07T09:28:43;0.20;99.90
28244;DHT22;15510;52.512;13.300;2023-02-07T09:31:10;0.20;99.90
28244;DHT22;15510;52.512;13.300;2023-02-07T09:33:37;0.20;99.90
28244;DHT22;15510;52.512;13.300;2023-02-07T09:36:03;0.30;99.90
28244;DHT22;15510;52.512;13.300;2023-02-07T09:38:29;0.40;99.90
28244;DHT22;15510;52.512;13.300;2023-02-07T09:40:55;0.50;99.90
28244;DHT22;15510;52.512;13.300;2023-02-07T09:43:34;0.60;99.90
28244;DHT22;15510;52.512;13.300;2023-02-07T09:46:41;0.60;99.90
28244;DHT22;15510;52.512;13.300;2023-02-07T09:49:15;0.50;99.90
28244;DHT22;15510;52.512;13.300;2023-02-07T09:51:43;0.50;99.90
28244;DHT22;15510;52.512;13.300;2023-02-07T09:54:43;0.60;99.90
28244;DHT22;15510;52.512;13.300;2023-02-07T09:57:17;0.70;99.90
28244;DHT22;15510;52.512;13.300;2023-02-07T09:59:59;0.90;99.90
28244;DHT22;15510;52.512;13.300;2023-02-07T10:02:34;1.00;99.90
28244;DHT22;15510;52.512;13.300;2023-02-07T10:05:14;1.20;99.90
28244;DHT22;15510;52.512;13.300;2023-02-07T10:07:46;1.20;99.90
28244;DHT22;15510;52.512;13.300;2023-02-07T10:12:51;1.30;99.90
28244;DHT22;15510;52.512;13.300;2023-02-07T10:18:29;1.50;99.90
28244;DHT22;15510;52.512;13.300;2023-02-07T10:21:16;1.40;99.90
28244;DHT22;15510;52.512;13.300;2023-02-07T10:24:16;1.50;99.90
28244;DHT22;15510;52.512;13.300;2023-02-07T10:26:52;1.50;99.90
28244;DHT22;15510;52.512;13.300;2023-02-07T10:32:13;1.60;99.90
28244;DHT22;15510;52.512;13.300;2023-02-07T10:34:44;1.60;99.90
28244;DHT22;15510;52.512;13.300;2023-02-07T10:37:21;1.60;99.90
28244;DHT22;15510;52.512;13.300;2023-02-07T10:40:00;1.60;99.90
28244;DHT22;15510;52.512;13.300;2023-02-07T10:42:28;1.60;99.90
28244;DHT22;15510;52.512;13.300;2023-02-07T10:44:56;1.70;99.90
28244;DHT22;15510;52.512;13.300;2023-02-07T10:47:22;1.70;99.90
28244;DHT22;15510;52.512;13.300;2023-02-07T10:49:52;1.80;99.90
28244;DHT22;15510;52.512;13.300;2023-02-07T10:52:32;1.80;99.90
28244;DHT22;15510;52.512;13.300;2023-02-07T10:55:02;1.80;99.90
28244;DHT22;15510;52.512;13.300;2023-02-07T10:57:30;1.70;99.90
28244;DHT22;15510;52.512;13.300;2023-02-07T10:59:59;1.70;99.90
28244;DHT22;15510;52.512;13.300;2023-02-07T11:08:04;1.90;99.90
28244;DHT22;15510;52.512;13.300;2023-02-07T11:10:39;2.00;99.90
28244;DHT22;15510;52.512;13.300;2023-02-07T11:13:19;2.20;99.90
28244;DHT22;15510;52.512;13.300;2023-02-07T11:15:59;2.50;99.90
28244;DHT22;15510;52.512;13.300;2023-02-07T11:18:43;2.70;99.90
28244;DHT22;15510;52.512;13.300;2023-02-07T11:21:33;3.00;99.90
28244;DHT22;15510;52.512;13.300;2023-02-07T11:26:33;3.60;99.90
28244;DHT22;15510;52.512;13.300;2023-02-07T11:29:17;4.00;99.90
28244;DHT22;15510;52.512;13.300;2023-02-07T11:31:44;4.60;99.90
28244;DHT22;15510;52.512;13.300;2023-02-07T11:39:56;5.90;99.90
28244;DHT22;15510;52.512;13.300;2023-02-07T11:42:38;6.00;99.90
28244;DHT22;15510;52.512;13.300;2023-02-07T11:45:04;5.90;99.90
28244;DHT22;15510;52.512;13.300;2023-02-07T11:47:31;5.50;99.90
28244;DHT22;15510;52.512;13.300;2023-02-07T11:50:03;5.20;99.90
28244;DHT22;15510;52.512;13.300;2023-02-07T11:52:32;5.30;99.90
28244;DHT22;15510;52.512;13.300;2023-02-07T11:55:01;5.40;99.90
28244;DHT22;15510;52.512;13.300;2023-02-07T11:57:31;5.60;99.90
28244;DHT22;15510;52.512;13.300;2023-02-07T12:02:39;5.70;99.90
28244;DHT22;15510;52.512;13.300;2023-02-07T12:05:20;5.70;99.90
28244;DHT22;15510;52.512;13.300;2023-02-07T12:07:49;5.80;99.90
28244;DHT22;15510;52.512;13.300;2023-02-07T12:10:43;5.80;99.90
28244;DHT22;15510;52.512;13.300;2023-02-07T12:18:54;5.90;99.90
28244;DHT22;15510;52.512;13.300;2023-02-07T12:21:34;6.10;99.90
28244;DHT22;15510;52.512;13.300;2023-02-07T12:24:10;6.00;99.90
28244;DHT22;15510;52.512;13.300;2023-02-07T12:27:33;6.00;99.90
28244;DHT22;15510;52.512;13.300;2023-02-07T12:29:47;6.30;99.90
28244;DHT22;15510;52.512;13.300;2023-02-07T12:35:03;6.60;99.90
28244;DHT22;15510;52.512;13.300;2023-02-07T12:40:14;7.30;99.90
28244;DHT22;15510;52.512;13.300;2023-02-07T12:43:13;7.90;99.90
28244;DHT22;15510;52.512;13.300;2023-02-07T12:45:46;8.20;99.90
28244;DHT22;15510;52.512;13.300;2023-02-07T12:57:09;6.90;99.90
28244;DHT22;15510;52.512;13.300;2023-02-07T12:59:56;6.20;99.90
28244;DHT22;15510;52.512;13.300;2023-02-07T13:19:27;4.10;99.90
28244;DHT22;15510;52.512;13.300;2023-02-07T13:22:04;3.80;99.90
28244;DHT22;15510;52.512;13.300;2023-02-07T13:24:32;3.60;99.90
28244;DHT22;15510;52.512;13.300;2023-02-07T13:27:02;3.60;99.90
28244;DHT22;15510;52.512;13.300;2023-02-07T13:29:31;3.60;99.90
28244;DHT22;15510;52.512;13.300;2023-02-07T13:32:05;3.50;99.90
28244;DHT22;15510;52.512;13.300;2023-02-07T13:35:01;3.50;99.90
28244;DHT22;15510;52.512;13.300;2023-02-07T13:37:48;3.40;99.90
28244;DHT22;15510;52.512;13.300;2023-02-07T13:43:08;3.40;99.90
28244;DHT22;15510;52.512;13.300;2023-02-07T13:45:44;3.40;99.90
28244;DHT22;15510;52.512;13.300;2023-02-07T13:48:33;3.30;99.90
28244;DHT22;15510;52.512;13.300;2023-02-07T13:56:35;3.10;99.90
28244;DHT22;15510;52.512;13.300;2023-02-07T13:59:36;3.10;99.90
28244;DHT22;15510;52.512;13.300;2023-02-07T14:02:25;3.10;99.90
28244;DHT22;15510;52.512;13.300;2023-02-07T14:04:54;3.00;99.90
28244;DHT22;15510;52.512;13.300;2023-02-07T14:07:39;2.90;99.90
28244;DHT22;15510;52.512;13.300;2023-02-07T14:10:05;2.90;99.90
28244;DHT22;15510;52.512;13.300;2023-02-07T14:12:35;2.90;99.90
28244;DHT22;15510;52.512;13.300;2023-02-07T14:18:00;2.80;99.90
28244;DHT22;15510;52.512;13.300;2023-02-07T14:23:16;2.80;99.90
28244;DHT22;15510;52.512;13.300;2023-02-07T14:25:43;2.80;99.90
28244;DHT22;15510;52.512;13.300;2023-02-07T14:33:37;2.80;99.90
28244;DHT22;15510;52.512;13.300;2023-02-07T14:36:18;2.80;99.90
28244;DHT22;15510;52.512;13.300;2023-02-07T14:41:43;2.70;99.90
28244;DHT22;15510;52.512;13.300;2023-02-07T14:44:33;2.70;99.90
28244;DHT22;15510;52.512;13.300;2023-02-07T14:47:02;2.80;99.90
28244;DHT22;15510;52.512;13.300;2023-02-07T14:49:38;2.90;99.90
28244;DHT22;15510;52.512;13.300;2023-02-07T14:52:14;2.90;99.90
28244;DHT22;15510;52.512;13.300;2023-02-07T14:54:57;2.80;99.90
28244;DHT22;15510;52.512;13.300;2023-02-07T14:57:43;2.70;99.90
28244;DHT22;15510;52.512;13.300;2023-02-07T15:02:53;2.60;99.90
28244;DHT22;15510;52.512;13.300;2023-02-07T15:05:30;2.50;99.90
28244;DHT22;15510;52.512;13.300;2023-02-07T15:13:42;2.50;99.90
28244;DHT22;15510;52.512;13.300;2023-02-07T15:18:44;2.50;99.90
28244;DHT22;15510;52.512;13.300;2023-02-07T15:21:23;2.50;99.90
28244;DHT22;15510;52.512;13.300;2023-02-07T15:24:05;2.40;99.90
28244;DHT22;15510;52.512;13.300;2023-02-07T15:26:33;2.40;99.90
28244;DHT22;15510;52.512;13.300;2023-02-07T15:29:04;2.30;99.90
28244;DHT22;15510;52.512;13.300;2023-02-07T15:31:36;2.30;99.90
28244;DHT22;15510;52.512;13.300;2023-02-07T15:34:05;2.30;99.90
28244;DHT22;15510;52.512;13.300;2023-02-07T15:36:42;2.30;99.90
28244;DHT22;15510;52.512;13.300;2023-02-07T15:39:21;2.30;99.90
28244;DHT22;15510;52.512;13.300;2023-02-07T15:41:52;2.20;99.90
28244;DHT22;15510;52.512;13.300;2023-02-07T15:44:25;2.20;99.90
28244;DHT22;15510;52.512;13.300;2023-02-07T15:49:35;2.20;99.90
28244;DHT22;15510;52.512;13.300;2023-02-07T15:52:27;2.20;99.90
28244;DHT22;15510;52.512;13.300;2023-02-07T15:54:54;2.10;99.90
28244;DHT22;15510;52.512;13.300;2023-02-07T15:59:51;2.00;99.90
28244;DHT22;15510;52.512;13.300;2023-02-07T16:02:30;2.00;99.90
28244;DHT22;15510;52.512;13.300;2023-02-07T16:05:07;2.00;99.90
28244;DHT22;15510;52.512;13.300;2023-02-07T16:07:35;1.90;99.90
28244;DHT22;15510;52.512;13.300;2023-02-07T16:13:02;1.90;99.90
28244;DHT22;15510;52.512;13.300;2023-02-07T16:15:31;1.70;99.90
28244;DHT22;15510;52.512;13.300;2023-02-07T16:17:59;1.70;99.90
28244;DHT22;15510;52.512;13.300;2023-02-07T16:20:27;1.60;99.90
28244;DHT22;15510;52.512;13.300;2023-02-07T16:22:56;1.60;99.90
28244;DHT22;15510;52.512;13.300;2023-02-07T16:25:26;1.60;99.90
28244;DHT22;15510;52.512;13.300;2023-02-07T16:27:52;1.50;99.90
28244;DHT22;15510;52.512;13.300;2023-02-07T16:30:26;1.50;99.90
28244;DHT22;15510;52.512;13.300;2023-02-07T16:32:53;1.50;99.90
28244;DHT22;15510;52.512;13.300;2023-02-07T16:35:24;1.50;99.90
28244;DHT22;15510;52.512;13.300;2023-02-07T16:37:51;1.50;99.90
28244;DHT22;15510;52.512;13.300;2023-02-07T16:40:18;1.40;99.90
28244;DHT22;15510;52.512;13.300;2023-02-07T16:42:44;1.50;99.90
28244;DHT22;15510;52.512;13.300;2023-02-07T16:45:16;1.60;99.90
28244;DHT22;15510;52.512;13.300;2023-02-07T16:47:42;1.70;99.90
28244;DHT22;15510;52.512;13.300;2023-02-07T16:50:20;1.70;99.90
28244;DHT22;15510;52.512;13.300;2023-02-07T16:52:47;1.60;99.90
28244;DHT22;15510;52.512;13.300;2023-02-07T16:55:18;1.60;99.90
28244;DHT22;15510;52.512;13.300;2023-02-07T16:57:46;1.50;99.90
28244;DHT22;15510;52.512;13.300;2023-02-07T17:00:19;1.60;99.90
28244;DHT22;15510;52.512;13.300;2023-02-07T17:02:47;1.50;99.90
28244;DHT22;15510;52.512;13.300;2023-02-07T17:05:22;1.50;99.90
28244;DHT22;15510;52.512;13.300;2023-02-07T17:07:48;1.50;99.90
28244;DHT22;15510;52.512;13.300;2023-02-07T17:10:29;1.60;99.90
28244;DHT22;15510;52.512;13.300;2023-02-07T17:12:56;1.70;99.90
28244;DHT22;15510;52.512;13.300;2023-02-07T17:15:21;1.60;99.90
28244;DHT22;15510;52.512;13.300;2023-02-07T17:17:48;1.50;99.90
28244;DHT22;15510;52.512;13.300;2023-02-07T17:20:27;1.40;99.90
28244;DHT22;15510;52.512;13.300;2023-02-07T17:22:53;1.40;99.90
28244;DHT22;15510;52.512;13.300;2023-02-07T17:25:21;1.40;99.90
28244;DHT22;15510;52.512;13.300;2023-02-07T17:27:47;1.40;99.90
28244;DHT22;15510;52.512;13.300;2023-02-07T17:30:24;1.50;99.90
28244;DHT22;15510;52.512;13.300;2023-02-07T17:32:50;1.40;99.90
28244;DHT22;15510;52.512;13.300;2023-02-07T17:35:16;1.50;99.90
28244;DHT22;15510;52.512;13.300;2023-02-07T17:37:42;1.40;99.90
28244;DHT22;15510;52.512;13.300;2023-02-07T17:42:45;1.40;99.90
28244;DHT22;15510;52.512;13.300;2023-02-07T17:45:10;1.40;99.90
28244;DHT22;15510;52.512;13.300;2023-02-07T17:47:36;1.50;99.90
28244;DHT22;15510;52.512;13.300;2023-02-07T17:50:02;1.60;99.90
28244;DHT22;15510;52.512;13.300;2023-02-07T17:52:29;1.50;99.90
28244;DHT22;15510;52.512;13.300;2023-02-07T17:54:56;1.50;99.90
28244;DHT22;15510;52.512;13.300;2023-02-07T17:57:22;1.50;99.90